Time;durP1;ratioP1;P1;durP2;ratioP2;P2;SDS_P1;SDS_P2;PMS_P1;PMS_P2;Temp;Humidity;BMP_temperature;BMP_pressure;BME280_temperature;BME280_humidity;BME280_pressure;Samples;Min_cycle;Max_cycle;Signal;HPM_P1;HPM_P2
2023/02/18 00:04:54;;;;;;;4.57;3.20;;;;;;;8.57;100.00;100132.06;10464578;28;20044;-76
2023/02/18 00:09:56;;;;;;;3.70;3.25;;;;;;;8.69;100.00;100136.16;10464846;28;20133;-75
2023/02/18 00:14:57;;;;;;;6.25;4.45;;;;;;;8.47;100.00;100130.53;10464297;28;20037;-75
2023/02/18 00:19:59;;;;;;;5.65;4.32;;;;;;;8.57;100.00;100126.81;10463665;28;20044;-75
2023/02/18 00:25:01;;;;;;;6.15;5.25;;;;;;;8.64;100.00;100120.56;10406594;28;1185623;-76
2023/02/18 00:30:03;;;;;;;7.10;6.40;;;;;;;8.71;100.00;100122.13;10465918;28;20052;-76
2023/02/18 00:35:07;;;;;;;7.38;6.68;;;;;;;8.62;100.00;100131.94;10465386;28;20044;-76
2023/02/18 00:40:09;;;;;;;7.95;7.13;;;;;;;8.69;100.00;100136.16;10447187;28;20051;-76
2023/02/18 00:45:11;;;;;;;7.15;6.55;;;;;;;8.76;100.00;100135.97;10446759;28;20055;-76
2023/02/18 00:50:13;;;;;;;14.55;12.05;;;;;;;8.54;100.00;100126.88;10463900;28;20509;-75
2023/02/18 00:55:15;;;;;;;9.40;8.50;;;;;;;8.67;100.00;100135.31;10462299;28;20513;-76
2023/02/18 01:00:17;;;;;;;9.15;8.38;;;;;;;8.81;100.00;100136.75;10446591;28;20053;-75
2023/02/18 01:05:19;;;;;;;10.15;9.27;;;;;;;8.55;100.00;100124.25;10446658;28;20041;-75
2023/02/18 01:10:21;;;;;;;11.25;9.13;;;;;;;8.50;100.00;100141.81;10446017;28;20059;-75
2023/02/18 01:15:23;;;;;;;8.77;8.00;;;;;;;8.70;100.00;100137.88;10446491;28;20051;-75
2023/02/18 01:20:25;;;;;;;8.35;7.35;;;;;;;8.56;100.00;100149.53;10446035;28;20049;-75
2023/02/18 01:25:27;;;;;;;10.23;6.70;;;;;;;8.46;100.00;100155.88;10468190;22;20377;-72
2023/02/18 01:30:29;;;;;;;6.72;5.32;;;;;;;8.57;100.00;100146.00;10441490;28;20053;-72
2023/02/18 01:35:32;;;;;;;4.32;3.75;;;;;;;8.46;100.00;100132.31;10444420;28;20454;-74
2023/02/18 01:40:34;;;;;;;6.05;2.00;;;;;;;8.60;98.50;100142.47;10460684;28;20116;-73
2023/02/18 01:45:46;;;;;;;5.47;2.00;;;;;;;8.52;95.59;100134.78;10461342;28;20199;-72
2023/02/18 01:50:55;;;;;;;3.00;1.50;;;;;;;8.42;93.21;100133.25;10459057;28;20468;-72
2023/02/18 01:56:00;;;;;;;4.25;1.15;;;;;;;8.33;91.39;100133.41;10459314;28;20037;-72
2023/02/18 02:01:02;;;;;;;4.10;1.00;;;;;;;8.41;87.27;100133.28;10441525;28;20139;-72
2023/02/18 02:06:13;;;;;;;7.38;1.15;;;;;;;8.48;85.01;100127.88;10441263;28;20072;-72
2023/02/18 02:11:24;;;;;;;4.55;0.93;;;;;;;8.49;83.73;100137.44;10457850;28;20064;-72
2023/02/18 02:16:41;;;;;;;3.33;0.90;;;;;;;8.34;84.40;100153.47;10460043;28;20068;-72
2023/02/18 02:22:20;;;;;;;3.28;1.10;;;;;;;8.43;84.46;100155.06;10439402;28;20048;-72
2023/02/18 02:27:28;;;;;;;8.68;1.17;;;;;;;8.43;84.82;100142.84;10459202;28;20033;-72
2023/02/18 02:32:54;;;;;;;5.65;1.42;;;;;;;8.43;84.53;100137.59;10459505;28;20044;-72
2023/02/18 02:38:06;;;;;;;4.90;1.17;;;;;;;8.37;85.47;100135.13;10439387;28;20049;-72
2023/02/18 02:43:16;;;;;;;4.70;0.90;;;;;;;8.29;86.23;100145.72;10439831;28;20075;-72
2023/02/18 02:48:37;;;;;;;5.53;0.90;;;;;;;8.19;86.40;100149.44;10440782;28;20051;-72
2023/02/18 02:53:41;;;;;;;3.30;1.10;;;;;;;8.18;86.43;100149.44;10456498;28;20474;-72
2023/02/18 02:58:54;;;;;;;6.13;1.33;;;;;;;8.25;84.37;100140.56;10456524;28;20037;-72
2023/02/18 03:04:08;;;;;;;6.55;1.08;;;;;;;8.32;80.07;100137.81;10424700;28;20052;-72
2023/02/18 03:09:38;;;;;;;5.80;1.55;;;;;;;8.32;79.51;100139.53;10440175;28;20041;-73
2023/02/18 03:14:57;;;;;;;5.90;1.00;;;;;;;8.32;79.48;100150.00;10430131;28;20059;-73
2023/02/18 03:20:05;;;;;;;8.02;1.23;;;;;;;8.24;79.68;100150.19;10443434;28;20049;-73
2023/02/18 03:25:07;;;;;;;5.00;1.45;;;;;;;8.18;79.95;100152.91;10446601;28;20143;-73
2023/02/18 03:30:16;;;;;;;5.75;1.27;;;;;;;8.28;79.19;100143.13;10464438;28;20048;-73
2023/02/18 03:35:19;;;;;;;3.95;0.98;;;;;;;8.43;77.58;100145.47;10448072;28;20068;-73
2023/02/18 03:40:21;;;;;;;3.45;1.13;;;;;;;8.18;80.38;100150.28;10463831;28;20048;-73
2023/02/18 03:45:24;;;;;;;5.85;1.33;;;;;;;8.25;80.12;100143.19;10463802;28;20482;-73
2023/02/18 03:50:26;;;;;;;8.00;1.65;;;;;;;8.17;82.02;100139.88;10446728;28;20558;-73
2023/02/18 03:55:27;;;;;;;4.35;1.85;;;;;;;8.08;82.86;100139.16;10465264;28;20449;-73
2023/02/18 04:00:29;;;;;;;7.55;1.35;;;;;;;8.24;80.81;100133.63;10464256;28;20490;-74
2023/02/18 04:05:31;;;;;;;5.07;1.30;;;;;;;8.08;82.73;100144.38;10428713;28;20045;-74
2023/02/18 04:10:32;;;;;;;5.00;1.42;;;;;;;8.07;82.90;100147.91;10462792;28;20049;-74
2023/02/18 04:15:34;;;;;;;6.43;1.55;;;;;;;8.04;83.43;100144.47;10464481;28;20021;-74
2023/02/18 04:20:36;;;;;;;3.75;1.58;;;;;;;8.11;84.08;100147.84;10462591;28;20083;-74
2023/02/18 04:25:38;;;;;;;6.50;1.73;;;;;;;7.98;85.82;100148.09;10462082;28;20063;-74
2023/02/18 04:30:40;;;;;;;6.55;1.40;;;;;;;8.35;85.18;100142.97;10442588;28;20045;-73
2023/02/18 04:35:42;;;;;;;3.55;1.85;;;;;;;8.16;89.12;100146.00;10462284;28;20048;-73
2023/02/18 04:40:43;;;;;;;6.15;2.40;;;;;;;8.14;89.64;100130.31;10446129;28;20041;-74
2023/02/18 04:45:45;;;;;;;6.90;3.05;;;;;;;8.40;86.02;100135.03;10462312;28;20045;-73
2023/02/18 04:50:48;;;;;;;6.22;2.92;;;;;;;8.36;84.65;100135.97;10443839;28;20439;-73
2023/02/18 04:55:51;;;;;;;9.27;4.07;;;;;;;8.22;84.19;100141.47;10461526;28;20041;-73
2023/02/18 05:00:52;;;;;;;9.38;3.53;;;;;;;8.12;85.00;100137.34;10445049;28;20049;-73
2023/02/18 05:05:54;;;;;;;8.07;3.10;;;;;;;8.12;85.70;100139.09;10446188;28;20041;-73
2023/02/18 05:10:56;;;;;;;6.40;3.40;;;;;;;8.12;86.02;100141.72;10442936;28;20044;-73
2023/02/18 05:15:58;;;;;;;7.00;3.22;;;;;;;8.07;86.89;100141.81;10460876;28;20379;-74
2023/02/18 05:20:59;;;;;;;8.13;2.95;;;;;;;8.27;86.18;100126.53;10461321;28;20566;-74
2023/02/18 05:26:01;;;;;;;10.48;3.50;;;;;;;8.30;86.31;100118.63;10460124;28;20041;-74
2023/02/18 05:31:03;;;;;;;8.18;2.72;;;;;;;8.22;88.10;100114.44;10459526;28;20062;-74
2023/02/18 05:36:05;;;;;;;6.43;3.45;;;;;;;8.00;90.40;100108.78;10460257;28;20037;-74
2023/02/18 05:41:07;;;;;;;8.85;4.30;;;;;;;8.18;91.54;100100.53;10459355;28;20423;-73
2023/02/18 05:46:09;;;;;;;8.75;5.22;;;;;;;7.83;96.04;100096.91;10461560;28;20041;-73
2023/02/18 05:51:11;;;;;;;10.73;6.55;;;;;;;7.81;99.24;100085.59;10441342;28;20510;-74
2023/02/18 05:56:13;;;;;;;10.02;7.10;;;;;;;7.69;100.00;100084.97;10458822;28;20102;-74
2023/02/18 06:01:15;;;;;;;12.25;7.90;;;;;;;7.59;100.00;100087.75;10440988;28;20048;-73
2023/02/18 06:06:16;;;;;;;8.35;7.43;;;;;;;7.73;100.00;100074.41;10443068;28;20091;-73
2023/02/18 06:11:18;;;;;;;10.18;8.32;;;;;;;7.79;100.00;100079.53;10440735;28;20107;-73
2023/02/18 06:16:20;;;;;;;8.82;7.32;;;;;;;8.26;100.00;100084.69;10459183;28;20036;-73
2023/02/18 06:21:22;;;;;;;10.50;7.95;;;;;;;7.94;100.00;100078.34;10458170;28;20104;-73
2023/02/18 06:26:24;;;;;;;9.48;7.75;;;;;;;7.97;100.00;100078.31;10441926;28;20098;-73
2023/02/18 06:31:26;;;;;;;10.88;8.77;;;;;;;7.93;100.00;100073.16;10458655;28;20046;-73
2023/02/18 06:36:28;;;;;;;11.88;9.13;;;;;;;7.78;100.00;100076.94;10458177;28;20144;-73
2023/02/18 06:41:30;;;;;;;10.52;9.52;;;;;;;7.98;100.00;100074.78;10457133;28;20417;-73
2023/02/18 06:46:32;;;;;;;12.82;10.07;;;;;;;7.88;100.00;100070.66;10456637;28;20041;-72
2023/02/18 06:51:34;;;;;;;12.38;10.00;;;;;;;7.81;100.00;100062.03;10441337;28;20403;-72
2023/02/18 06:56:35;;;;;;;12.48;11.23;;;;;;;7.71;100.00;100062.25;10456697;28;20052;-72
2023/02/18 07:01:37;;;;;;;12.80;11.60;;;;;;;7.71;100.00;100065.75;10456379;28;20083;-73
2023/02/18 07:06:39;;;;;;;11.82;10.68;;;;;;;7.65;100.00;100058.00;10457045;28;20037;-73
2023/02/18 07:11:40;;;;;;;18.75;12.70;;;;;;;7.47;100.00;100055.72;10458420;28;20457;-73
2023/02/18 07:16:42;;;;;;;13.20;11.95;;;;;;;7.42;100.00;100047.97;10438613;28;20049;-73
2023/02/18 07:21:44;;;;;;;13.73;12.32;;;;;;;7.48;100.00;100034.81;10438546;28;20055;-73
2023/02/18 07:26:46;;;;;;;23.95;17.38;;;;;;;7.72;100.00;100036.06;10421990;22;20049;-75
2023/02/18 07:31:47;;;;;;;19.50;17.58;;;;;;;7.80;100.00;100020.22;10418112;28;20047;-76
2023/02/18 07:36:49;;;;;;;13.30;12.10;;;;;;;7.51;100.00;100005.94;10418364;28;20042;-77
2023/02/18 07:41:51;;;;;;;16.42;14.93;;;;;;;7.52;100.00;100010.28;10416784;28;20042;-77
2023/02/18 07:46:53;;;;;;;14.90;13.45;;;;;;;7.66;100.00;100001.28;10416437;28;20064;-77
2023/02/18 07:51:55;;;;;;;13.10;11.90;;;;;;;7.53;100.00;100009.41;10418817;28;20053;-77
2023/02/18 07:56:56;;;;;;;17.33;15.55;;;;;;;7.78;100.00;99987.97;10417589;28;20060;-77
2023/02/18 08:01:58;;;;;;;17.40;15.70;;;;;;;7.67;100.00;99987.34;10399812;28;20045;-77
2023/02/18 08:07:00;;;;;;;14.57;13.38;;;;;;;7.92;100.00;99975.44;10406014;28;20418;-76
2023/02/18 08:12:02;;;;;;;12.18;11.13;;;;;;;7.67;100.00;99974.25;10424806;28;20533;-76
2023/02/18 08:17:03;;;;;;;12.93;11.73;;;;;;;7.84;100.00;99961.69;10424684;28;20056;-77
2023/02/18 08:22:05;;;;;;;14.52;11.82;;;;;;;7.93;100.00;99955.38;10405865;28;20041;-77
2023/02/18 08:27:07;;;;;;;12.35;11.18;;;;;;;7.80;100.00;99954.78;10423301;28;20064;-77
2023/02/18 08:32:09;;;;;;;11.27;10.38;;;;;;;7.82;100.00;99935.53;10405649;28;20050;-77
2023/02/18 08:37:11;;;;;;;12.00;10.98;;;;;;;7.73;100.00;99921.78;10423429;28;20065;-76
2023/02/18 08:42:13;;;;;;;12.63;11.63;;;;;;;7.71;100.00;99911.38;10422672;28;20049;-76
2023/02/18 08:47:14;;;;;;;13.35;12.35;;;;;;;7.89;100.00;99907.47;10404636;28;20097;-76
2023/02/18 08:52:36;;;;;;;12.63;11.63;;;;;;;7.96;100.00;99906.44;10421394;28;20053;-76
2023/02/18 08:57:38;;;;;;;13.52;12.43;;;;;;;8.38;100.00;99889.78;10405173;28;20048;-76
2023/02/18 09:02:40;;;;;;;13.50;12.35;;;;;;;8.42;100.00;99884.41;10422192;28;20049;-77
2023/02/18 09:07:42;;;;;;;12.43;11.52;;;;;;;8.23;100.00;99876.09;10404631;28;20051;-77
2023/02/18 09:12:43;;;;;;;13.35;12.18;;;;;;;8.10;100.00;99866.81;10404684;28;20449;-77
2023/02/18 09:17:45;;;;;;;16.35;13.18;;;;;;;7.99;100.00;99848.78;10419729;28;20490;-76
2023/02/18 09:22:47;;;;;;;12.95;11.85;;;;;;;8.28;100.00;99853.31;10390819;28;20060;-76
2023/02/18 09:27:49;;;;;;;14.90;13.70;;;;;;;8.19;100.00;99843.06;10379053;28;20038;-76
2023/02/18 09:32:50;;;;;;;11.70;10.63;;;;;;;8.40;100.00;99825.97;10389440;28;20103;-77
2023/02/18 09:37:52;;;;;;;2.40;2.20;;;;;;;9.08;100.00;99811.88;10396973;28;20383;-76
2023/02/18 09:42:56;;;;;;;1.45;0.95;;;;;;;9.98;100.00;99803.78;10407008;28;20133;-76
2023/02/18 09:48:00;;;;;;;0.80;0.80;;;;;;;10.24;100.00;99802.97;10362802;28;20038;-76
2023/02/18 09:53:03;;;;;;;0.90;0.90;;;;;;;10.32;100.00;99790.44;10404681;28;20111;-75
2023/02/18 09:58:18;;;;;;;1.25;0.90;;;;;;;10.38;100.00;99778.84;10402080;28;20120;-77
2023/02/18 10:03:23;;;;;;;1.00;0.85;;;;;;;10.53;100.00;99770.41;10393846;28;20069;-76
2023/02/18 10:08:33;;;;;;;1.35;0.88;;;;;;;10.45;100.00;99756.69;10360003;28;20041;-77
2023/02/18 10:13:34;;;;;;;1.73;0.82;;;;;;;10.30;100.00;99746.72;10361136;28;20093;-79
2023/02/18 10:18:49;;;;;;;1.23;0.80;;;;;;;10.15;100.00;99750.72;10381698;28;20399;-78
2023/02/18 10:24:24;;;;;;;1.45;0.63;;;;;;;10.17;100.00;99730.50;10350751;28;20384;-78
2023/02/18 10:29:29;;;;;;;1.10;0.60;;;;;;;10.29;100.00;99731.88;10385107;28;20100;-78
2023/02/18 10:34:42;;;;;;;1.77;0.80;;;;;;;10.43;100.00;99715.59;10369412;28;20053;-78
2023/02/18 10:40:09;;;;;;;1.40;0.80;;;;;;;10.39;100.00;99720.13;10369465;28;20129;-79
2023/02/18 10:46:09;;;;;;;2.22;0.70;;;;;;;10.55;100.00;99718.66;10383890;28;20132;-78
2023/02/18 10:51:28;;;;;;;0.77;0.40;;;;;;;10.57;100.00;99695.78;10243543;29;20067;-79
2023/02/18 10:56:33;;;;;;;;;;;;;;;10.70;100.00;99687.44;10263367;29;20182;-78
2023/02/18 11:01:35;;;;;;;0.38;0.35;;;;;;;10.89;100.00;99679.69;10243416;28;19923;-78
2023/02/18 11:06:45;;;;;;;1.98;0.40;;;;;;;10.97;100.00;99657.44;10241722;29;20115;-77
2023/02/18 11:11:47;;;;;;;3.03;1.00;;;;;;;11.20;100.00;99653.03;10241836;28;20074;-78
2023/02/18 11:17:26;;;;;;;0.82;0.45;;;;;;;11.35;100.00;99624.34;10244576;28;20051;-78
2023/02/18 11:22:31;;;;;;;0.63;0.23;;;;;;;11.31;100.00;99608.75;10349006;28;20499;-78
2023/02/18 11:27:42;;;;;;;0.35;0.30;;;;;;;11.40;100.00;99610.16;10382478;28;20041;-77
2023/02/18 11:32:47;;;;;;;0.30;0.30;;;;;;;11.64;97.41;99617.00;10383800;28;20116;-79
2023/02/18 11:37:50;;;;;;;0.20;0.20;;;;;;;11.72;95.98;99590.34;10364393;28;20065;-77
2023/02/18 11:43:06;;;;;;;0.20;0.20;;;;;;;11.78;93.80;99595.34;10390798;28;20411;-78
2023/02/18 11:48:22;;;;;;;0.50;0.50;;;;;;;11.79;93.11;99589.16;10390240;28;20061;-78
2023/02/18 11:53:36;;;;;;;1.08;0.82;;;;;;;11.67;94.94;99577.38;10374059;28;20038;-79
2023/02/18 11:58:42;;;;;;;0.82;0.40;;;;;;;11.65;95.33;99578.38;10374688;28;20034;-77
2023/02/18 12:04:15;;;;;;;0.40;0.40;;;;;;;11.57;96.56;99576.06;10388704;28;20042;-78
2023/02/18 12:09:17;;;;;;;1.00;0.40;;;;;;;11.49;97.60;99563.22;10382718;28;20128;-78
2023/02/18 12:14:21;;;;;;;0.60;0.60;;;;;;;11.25;100.00;99569.56;10379160;28;20046;-78
2023/02/18 12:19:23;;;;;;;0.85;0.50;;;;;;;11.23;99.79;99571.38;10397261;28;20038;-78
2023/02/18 12:24:35;;;;;;;1.00;0.90;;;;;;;11.09;100.00;99561.44;10371917;28;20046;-77
2023/02/18 12:30:02;;;;;;;1.13;1.02;;;;;;;11.06;100.00;99559.78;10370188;28;20050;-78
2023/02/18 12:35:04;;;;;;;0.60;0.60;;;;;;;11.07;100.00;99558.03;10387536;28;20045;-78
2023/02/18 12:40:24;;;;;;;2.05;1.13;;;;;;;11.13;100.00;99559.53;10386605;28;20041;-77
2023/02/18 12:45:53;;;;;;;0.73;0.68;;;;;;;11.06;100.00;99562.41;10352634;28;20619;-78
2023/02/18 12:51:12;;;;;;;1.60;0.90;;;;;;;10.71;100.00;99558.56;10391036;28;20111;-79
2023/02/18 12:56:19;;;;;;;1.20;1.00;;;;;;;10.59;100.00;99554.69;10372105;28;20133;-78
2023/02/18 13:01:32;;;;;;;1.45;1.10;;;;;;;10.49;100.00;99553.34;10385057;28;20046;-78
2023/02/18 13:07:00;;;;;;;1.95;1.10;;;;;;;10.54;100.00;99551.38;10390199;28;20113;-78
2023/02/18 13:12:27;;;;;;;3.58;2.65;;;;;;;10.57;100.00;99560.91;10349770;28;20466;-78
2023/02/18 13:17:35;;;;;;;1.40;1.05;;;;;;;10.58;95.99;99538.94;10371055;28;20503;-77
2023/02/18 13:22:37;;;;;;;1.38;0.70;;;;;;;10.80;95.06;99531.06;10391173;28;20388;-78
2023/02/18 13:27:48;;;;;;;4.05;3.22;;;;;;;10.82;93.84;99537.97;10366774;28;20042;-78
2023/02/18 13:33:27;;;;;;;1.27;1.17;;;;;;;10.86;87.20;99542.19;10364957;28;20149;-78
2023/02/18 13:38:51;;;;;;;2.28;0.52;;;;;;;10.48;91.55;99541.09;10381471;28;20049;-77
2023/02/18 13:43:53;;;;;;;1.40;1.00;;;;;;;10.13;96.71;99538.94;10384275;28;20045;-76
2023/02/18 13:49:10;;;;;;;0.60;0.60;;;;;;;10.05;95.75;99542.72;10365042;28;20072;-76
2023/02/18 13:54:28;;;;;;;4.88;1.77;;;;;;;10.15;94.60;99542.38;10364858;28;20073;-76
2023/02/18 13:59:38;;;;;;;1.10;0.90;;;;;;;10.20;93.67;99557.03;10383291;28;20038;-76
2023/02/18 14:04:43;;;;;;;0.63;0.57;;;;;;;10.07;93.72;99550.53;10379223;28;20077;-77
2023/02/18 14:09:45;;;;;;;1.45;0.73;;;;;;;10.21;90.39;99535.09;10362534;28;20046;-77
2023/02/18 14:14:47;;;;;;;1.98;0.65;;;;;;;10.15;90.39;99545.00;10380731;28;20081;-77
2023/02/18 14:20:18;;;;;;;1.52;0.63;;;;;;;10.20;88.32;99549.16;10362888;28;20046;-77
2023/02/18 14:25:20;;;;;;;1.70;0.60;;;;;;;10.14;87.33;99567.78;10215707;29;20514;-77
2023/02/18 14:30:22;;;;;;;1.40;0.52;;;;;;;10.12;88.02;99553.84;10216587;29;20527;-79
2023/02/18 14:35:47;;;;;;;2.13;0.70;;;;;;;10.06;89.14;99551.44;10201796;29;20409;-77
2023/02/18 14:41:01;;;;;;;0.73;0.52;;;;;;;10.12;87.78;99561.72;10200087;29;20066;-76
2023/02/18 14:46:07;;;;;;;0.52;0.35;;;;;;;10.18;85.24;99573.75;10216737;29;20051;-77
2023/02/18 14:51:13;;;;;;;0.90;0.40;;;;;;;10.22;84.99;99585.84;10215695;29;20048;-77
2023/02/18 14:56:18;;;;;;;0.45;0.45;;;;;;;10.28;84.72;99577.81;10183821;29;20051;-77
2023/02/18 15:01:23;;;;;;;0.45;0.40;;;;;;;10.15;87.79;99597.53;10299028;28;20112;-77
2023/02/18 15:06:32;;;;;;;1.27;0.30;;;;;;;10.06;91.09;99601.34;10359078;28;20057;-76
2023/02/18 15:11:38;;;;;;;1.00;0.50;;;;;;;9.78;97.69;99610.22;10359705;28;20058;-76
2023/02/18 15:16:40;;;;;;;1.83;0.70;;;;;;;9.57;100.00;99603.94;10376079;28;20073;-77
2023/02/18 15:21:44;;;;;;;0.68;0.40;;;;;;;9.69;99.29;99591.28;10359676;28;20079;-76
2023/02/18 15:26:50;;;;;;;0.60;0.60;;;;;;;9.72;97.44;99592.03;10358930;28;22004;-76
2023/02/18 15:31:59;;;;;;;0.40;0.33;;;;;;;10.04;90.20;99608.41;10377309;28;20064;-76
2023/02/18 15:37:05;;;;;;;2.15;0.40;;;;;;;10.02;89.24;99616.34;10376356;28;20042;-77
2023/02/18 15:42:22;;;;;;;0.50;0.30;;;;;;;10.21;86.10;99611.28;10375905;28;20073;-76
2023/02/18 15:47:24;;;;;;;0.43;0.43;;;;;;;10.33;84.11;99623.13;10375234;28;20052;-76
2023/02/18 15:52:32;;;;;;;0.47;0.30;;;;;;;10.38;82.78;99615.94;10359476;28;20062;-77
2023/02/18 15:57:36;;;;;;;0.50;0.30;;;;;;;10.42;82.59;99622.78;10376000;28;20060;-75
2023/02/18 16:02:51;;;;;;;0.80;0.80;;;;;;;10.28;84.47;99618.06;10357435;28;20037;-78
2023/02/18 16:07:59;;;;;;;0.60;0.52;;;;;;;10.24;84.89;99611.19;10395621;28;20034;-77
2023/02/18 16:13:03;;;;;;;0.45;0.30;;;;;;;10.38;83.38;99622.97;10391989;28;20041;-76
2023/02/18 16:18:06;;;;;;;0.57;0.57;;;;;;;10.29;83.88;99617.13;10381714;28;20053;-76
2023/02/18 16:23:13;;;;;;;8.18;7.35;;;;;;;10.15;85.73;99644.81;10386007;28;20049;-77
2023/02/18 16:28:26;;;;;;;2.15;1.63;;;;;;;10.28;85.20;99656.59;10364615;28;20089;-77
2023/02/18 16:33:28;;;;;;;0.98;0.50;;;;;;;10.28;84.12;99661.84;10367678;28;20050;-78
2023/02/18 16:38:30;;;;;;;1.30;1.20;;;;;;;10.21;85.29;99662.94;10400224;28;20045;-78
2023/02/18 16:43:33;;;;;;;0.30;0.25;;;;;;;10.16;85.48;99652.63;10412254;28;20057;-78
2023/02/18 16:48:39;;;;;;;1.08;0.70;;;;;;;10.23;84.74;99664.63;10429349;28;20069;-78
2023/02/18 16:53:41;;;;;;;1.33;0.90;;;;;;;10.26;83.98;99666.28;10426995;28;20045;-76
2023/02/18 16:58:46;;;;;;;5.25;4.82;;;;;;;10.37;82.80;99684.31;10410463;28;20049;-77
2023/02/18 17:03:49;;;;;;;1.50;1.13;;;;;;;10.34;82.91;99675.63;10408179;28;20503;-78
2023/02/18 17:08:51;;;;;;;7.63;7.03;;;;;;;10.38;83.07;99684.25;10395190;28;20087;-77
2023/02/18 17:13:54;;;;;;;1.70;1.60;;;;;;;10.24;86.61;99681.25;10398178;28;20574;-78
2023/02/18 17:18:57;;;;;;;0.77;0.50;;;;;;;9.97;89.63;99699.69;10367784;28;20052;-78
2023/02/18 17:24:00;;;;;;;0.65;0.60;;;;;;;10.03;89.21;99717.00;10366268;28;20041;-77
2023/02/18 17:29:04;;;;;;;0.75;0.50;;;;;;;9.85;92.18;99706.19;10366131;28;20049;-77
2023/02/18 17:34:08;;;;;;;0.40;0.30;;;;;;;9.67;93.78;99727.81;10384598;28;20045;-78
2023/02/18 17:39:16;;;;;;;0.47;0.40;;;;;;;9.79;94.53;99713.44;10364211;28;20104;-79
2023/02/18 17:44:21;;;;;;;0.43;0.38;;;;;;;9.75;93.22;99728.44;10367137;28;20503;-78
2023/02/18 17:49:23;;;;;;;1.17;0.82;;;;;;;9.71;93.02;99733.84;10366076;28;20046;-78
2023/02/18 17:54:25;;;;;;;0.80;0.63;;;;;;;9.78;91.85;99749.34;10367582;28;20532;-78
2023/02/18 17:59:29;;;;;;;0.40;0.30;;;;;;;9.79;92.59;99748.41;10387403;28;20041;-78
2023/02/18 18:04:31;;;;;;;1.02;0.63;;;;;;;9.76;92.42;99768.66;10365889;28;20046;-77
2023/02/18 18:09:33;;;;;;;1.30;0.60;;;;;;;9.95;89.50;99775.00;10364138;28;20116;-77
2023/02/18 18:14:35;;;;;;;1.05;0.40;;;;;;;10.14;85.81;99763.88;10415769;28;20037;-77
2023/02/18 18:19:37;;;;;;;0.75;0.55;;;;;;;10.21;85.65;99770.66;10409808;28;20064;-78
2023/02/18 18:24:39;;;;;;;2.05;1.55;;;;;;;10.27;83.95;99789.72;10368054;28;20053;-77
2023/02/18 18:29:41;;;;;;;1.15;0.77;;;;;;;10.21;85.19;99803.03;10364997;28;20065;-76
2023/02/18 18:34:45;;;;;;;1.10;0.63;;;;;;;10.07;88.17;99815.75;10381569;28;20526;-79
2023/02/18 18:39:49;;;;;;;0.97;0.80;;;;;;;9.92;91.96;99821.53;10383093;28;20069;-78
2023/02/18 18:44:51;;;;;;;3.88;1.98;;;;;;;9.86;92.48;99814.69;10360871;28;20046;-77
2023/02/18 18:49:53;;;;;;;4.00;3.17;;;;;;;9.73;95.62;99816.00;10359834;28;20112;-77
2023/02/18 18:54:55;;;;;;;1.15;0.90;;;;;;;9.76;93.15;99810.66;10378309;28;20045;-76
2023/02/18 18:59:57;;;;;;;1.88;1.20;;;;;;;9.82;92.32;99803.44;10362036;28;20041;-78
2023/02/18 19:04:59;;;;;;;1.20;1.00;;;;;;;9.81;92.42;99806.09;10361276;28;20045;-77
2023/02/18 19:10:01;;;;;;;2.33;1.05;;;;;;;9.83;91.64;99806.94;10345820;28;20137;-77
2023/02/18 19:15:03;;;;;;;1.20;0.82;;;;;;;9.78;91.02;99808.81;10349822;28;20522;-76
2023/02/18 19:20:05;;;;;;;2.30;1.45;;;;;;;9.83;90.28;99820.06;10396350;28;20038;-77
2023/02/18 19:25:07;;;;;;;3.20;2.90;;;;;;;9.88;89.85;99826.03;10405804;28;20049;-75
2023/02/18 19:30:23;;;;;;;1.17;1.00;;;;;;;9.89;89.85;99817.22;10400893;28;20548;-74
2023/02/18 19:35:27;;;;;;;1.30;1.02;;;;;;;9.86;90.20;99827.81;10377736;28;20049;-74
2023/02/18 19:40:29;;;;;;;2.25;0.90;;;;;;;9.76;91.60;99824.63;10378059;28;20133;-75
2023/02/18 19:45:34;;;;;;;1.00;0.90;;;;;;;9.74;92.24;99838.69;10361938;28;20104;-75
2023/02/18 19:50:36;;;;;;;1.17;0.70;;;;;;;9.55;93.32;99831.41;10361984;28;20041;-75
2023/02/18 19:55:41;;;;;;;1.20;0.90;;;;;;;9.43;94.10;99846.66;10378325;28;20126;-74
2023/02/18 20:00:43;;;;;;;2.63;0.85;;;;;;;9.48;94.46;99831.66;10380554;28;20280;-76
2023/02/18 20:05:45;;;;;;;1.85;1.58;;;;;;;9.40;96.44;99844.16;10383941;28;20416;-76
2023/02/18 20:10:58;;;;;;;2.00;1.63;;;;;;;9.41;97.19;99843.25;10386905;28;20514;-75
2023/02/18 20:16:00;;;;;;;1.15;0.98;;;;;;;9.33;97.94;99853.94;10369932;28;20073;-75
2023/02/18 20:21:02;;;;;;;0.82;0.80;;;;;;;9.39;97.28;99847.69;10386341;28;20377;-75
2023/02/18 20:26:13;;;;;;;2.17;1.30;;;;;;;9.27;97.84;99851.50;10367577;28;20056;-74
2023/02/18 20:31:15;;;;;;;2.85;1.98;;;;;;;9.38;96.59;99853.81;10385231;28;20491;-75
2023/02/18 20:36:17;;;;;;;2.17;1.48;;;;;;;9.36;96.92;99851.25;10368753;28;20070;-75
2023/02/18 20:41:21;;;;;;;1.48;1.08;;;;;;;9.33;97.16;99856.56;10384966;28;20096;-75
2023/02/18 20:46:23;;;;;;;1.15;1.02;;;;;;;9.42;96.63;99863.31;10383263;28;20077;-75
2023/02/18 20:51:25;;;;;;;1.00;1.00;;;;;;;9.30;97.22;99875.91;10365756;28;20084;-74
2023/02/18 20:56:27;;;;;;;1.23;0.98;;;;;;;9.34;96.85;99863.53;10384230;28;20113;-75
2023/02/18 21:01:29;;;;;;;2.35;1.80;;;;;;;9.25;97.21;99858.56;10382091;28;20042;-76
2023/02/18 21:06:31;;;;;;;2.53;1.10;;;;;;;9.20;96.71;99863.06;10348969;28;20073;-75
2023/02/18 21:11:33;;;;;;;1.88;1.10;;;;;;;9.34;94.53;99860.91;10363121;28;20058;-75
2023/02/18 21:16:38;;;;;;;2.45;1.50;;;;;;;9.34;94.19;99861.78;10365139;28;20055;-75
2023/02/18 21:21:45;;;;;;;3.80;2.25;;;;;;;9.37;95.45;99866.06;10367658;28;20042;-75
2023/02/18 21:26:47;;;;;;;;;;;;;;;9.44;96.35;99861.53;10405939;28;20049;-75
2023/02/18 21:31:49;;;;;;;2.53;1.13;;;;;;;9.46;97.14;99865.78;10424231;28;19975;-76
2023/02/18 21:36:51;;;;;;;4.63;3.95;;;;;;;9.46;97.50;99875.44;10424221;28;20041;-75
2023/02/18 21:41:52;;;;;;;2.40;2.17;;;;;;;9.55;97.01;99876.00;10423282;28;20380;-76
2023/02/18 21:46:54;;;;;;;3.63;2.33;;;;;;;9.42;99.52;99881.66;10422522;28;20121;-75
2023/02/18 21:51:56;;;;;;;4.00;2.63;;;;;;;9.39;100.00;99861.66;10421994;28;20042;-76
2023/02/18 21:57:01;;;;;;;3.20;2.70;;;;;;;9.37;100.00;99847.72;10405035;28;20052;-74
2023/02/18 22:02:05;;;;;;;5.38;2.33;;;;;;;9.05;100.00;99857.38;10404457;28;20041;-76
2023/02/18 22:07:07;;;;;;;2.65;2.45;;;;;;;9.01;100.00;99855.75;10422621;28;20116;-76
2023/02/18 22:12:10;;;;;;;3.28;2.45;;;;;;;9.02;100.00;99849.59;10405723;28;20049;-74
2023/02/18 22:17:13;;;;;;;2.33;2.13;;;;;;;9.12;100.00;99860.69;10422463;28;20516;-74
2023/02/18 22:22:15;;;;;;;2.75;2.05;;;;;;;9.16;100.00;99857.06;10415417;28;20038;-74
2023/02/18 22:27:18;;;;;;;2.85;2.58;;;;;;;9.32;97.64;99860.09;10362949;28;20472;-74
2023/02/18 22:32:20;;;;;;;3.30;3.00;;;;;;;9.39;96.04;99860.81;10362889;28;20037;-75
2023/02/18 22:37:22;;;;;;;4.07;2.78;;;;;;;9.23;99.53;99869.09;10363929;28;20112;-75
2023/02/18 22:42:24;;;;;;;3.60;3.30;;;;;;;9.09;100.00;99859.00;10362968;28;20053;-75
2023/02/18 22:47:26;;;;;;;3.88;3.58;;;;;;;8.92;100.00;99873.50;10363322;28;20129;-74
2023/02/18 22:52:28;;;;;;;3.65;3.15;;;;;;;9.02;100.00;99867.09;10363097;28;20045;-75
2023/02/18 22:57:30;;;;;;;3.15;2.85;;;;;;;8.98;100.00;99871.53;10376061;28;20136;-74
2023/02/18 23:02:32;;;;;;;3.40;2.35;;;;;;;8.87;100.00;99860.50;10421199;28;20139;-75
2023/02/18 23:07:33;;;;;;;2.70;2.28;;;;;;;8.99;100.00;99860.19;10402397;28;20045;-75
2023/02/18 23:12:35;;;;;;;2.65;2.15;;;;;;;9.02;100.00;99872.31;10418670;28;20045;-74
2023/02/18 23:17:37;;;;;;;2.92;2.40;;;;;;;9.08;100.00;99875.66;10419239;28;20041;-75
2023/02/18 23:22:40;;;;;;;3.22;2.55;;;;;;;9.06;100.00;99866.94;10401619;28;20521;-75
2023/02/18 23:27:42;;;;;;;3.03;2.50;;;;;;;9.11;100.00;99864.19;10403887;28;20041;-75
2023/02/18 23:32:44;;;;;;;3.40;2.88;;;;;;;9.07;98.93;99860.84;10400803;28;20049;-73
2023/02/18 23:38:04;;;;;;;1.73;1.63;;;;;;;9.23;98.60;99863.00;10424163;28;20045;-74